createdAt,value
2022-11-23T00:00:18.118Z,5.53
2022-11-23T00:03:23.521Z,7.00
2022-11-23T00:06:28.112Z,6.57
2022-11-23T00:09:32.593Z,6.40
2022-11-23T00:12:36.618Z,5.90
2022-11-23T00:15:42.607Z,6.27
2022-11-23T00:18:48.058Z,5.47
2022-11-23T00:21:51.641Z,5.87
2022-11-23T00:24:55.276Z,6.00
2022-11-23T00:27:58.970Z,5.80
2022-11-23T00:31:02.627Z,6.30
2022-11-23T00:34:07.569Z,5.67
2022-11-23T00:37:11.349Z,5.73
2022-11-23T00:40:14.942Z,5.57
2022-11-23T00:43:18.506Z,6.10
2022-11-23T00:46:24.198Z,5.93
2022-11-23T00:49:29.485Z,6.30
2022-11-23T00:52:33.217Z,6.20
2022-11-23T00:55:36.796Z,6.40
2022-11-23T00:58:40.632Z,6.47
2022-11-23T01:01:44.496Z,6.63
2022-11-23T01:04:49.510Z,5.90
2022-11-23T01:07:54.763Z,5.83
2022-11-23T01:11:04.834Z,6.53
2022-11-23T01:14:14.810Z,6.33
2022-11-23T01:17:18.505Z,6.30
2022-11-23T01:20:23.467Z,5.40
2022-11-23T01:23:29.406Z,6.33
2022-11-23T01:26:33.570Z,6.47
2022-11-23T01:29:37.153Z,6.77
2022-11-23T01:32:40.750Z,6.23
2022-11-23T01:35:45.882Z,6.40
2022-11-23T01:38:50.831Z,6.37
2022-11-23T01:41:54.418Z,6.70
2022-11-23T01:45:38.667Z,6.57
2022-11-23T01:48:48.462Z,6.80
2022-11-23T01:51:58.763Z,6.10
2022-11-23T01:55:08.127Z,6.27
2022-11-23T01:58:15.698Z,6.20
2022-11-23T02:01:19.408Z,6.23
2022-11-23T02:04:29.510Z,6.20
2022-11-23T02:07:35.824Z,6.30
2022-11-23T02:10:39.644Z,5.47
2022-11-23T02:13:46.754Z,5.73
2022-11-23T02:16:50.551Z,5.63
2022-11-23T02:20:08.445Z,5.70
2022-11-23T02:23:30.464Z,5.17
2022-11-23T02:26:38.200Z,5.23
2022-11-23T02:29:42.335Z,5.33
2022-11-23T02:32:46.067Z,5.67
2022-11-23T02:35:51.789Z,5.53
2022-11-23T02:38:57.046Z,5.13
2022-11-23T02:42:02.393Z,4.77
2022-11-23T02:45:17.705Z,5.27
2022-11-23T02:48:21.618Z,4.60
2022-11-23T02:51:25.363Z,4.70
2022-11-23T02:54:29.266Z,4.80
2022-11-23T02:57:34.335Z,5.27
2022-11-23T03:00:38.494Z,4.40
2022-11-23T03:03:42.222Z,4.40
2022-11-23T03:06:46.174Z,4.80
2022-11-23T03:09:49.752Z,4.13
2022-11-23T03:12:57.550Z,4.53
2022-11-23T03:16:01.160Z,4.13
2022-11-23T03:19:04.946Z,4.20
2022-11-23T03:22:08.942Z,4.17
2022-11-23T03:25:12.492Z,4.47
2022-11-23T03:28:17.567Z,4.57
2022-11-23T03:31:21.209Z,4.30
2022-11-23T03:34:24.876Z,3.93
2022-11-23T03:37:28.509Z,4.43
2022-11-23T03:40:32.146Z,3.53
2022-11-23T03:43:37.108Z,3.63
2022-11-23T03:46:40.689Z,3.60
2022-11-23T03:49:44.256Z,3.50
2022-11-23T03:52:50.280Z,3.87
2022-11-23T03:55:55.526Z,3.70
2022-11-23T03:59:00.621Z,3.50
2022-11-23T04:02:04.227Z,3.67
2022-11-23T04:05:09.345Z,3.33
2022-11-23T04:08:12.976Z,3.27
2022-11-23T04:11:16.595Z,3.47
2022-11-23T04:14:21.554Z,4.17
2022-11-23T04:17:25.193Z,3.97
2022-11-23T04:20:28.850Z,3.30
2022-11-23T04:23:32.462Z,3.43
2022-11-23T04:26:36.034Z,3.90
2022-11-23T04:29:41.061Z,3.50
2022-11-23T04:32:46.446Z,3.20
2022-11-23T04:35:49.951Z,3.00
2022-11-23T04:38:53.561Z,3.73
2022-11-23T04:41:57.283Z,3.47
2022-11-23T04:45:02.464Z,3.03
2022-11-23T04:48:07.135Z,3.40
2022-11-23T04:51:10.854Z,3.27
2022-11-23T04:54:14.493Z,3.47
2022-11-23T04:57:18.167Z,3.07
2022-11-23T05:00:23.459Z,3.20
2022-11-23T05:03:27.278Z,2.80
2022-11-23T05:06:31.010Z,3.20
2022-11-23T05:09:34.971Z,2.63
2022-11-23T05:12:38.838Z,3.60
2022-11-23T05:15:43.833Z,3.83
2022-11-23T05:18:47.480Z,3.43
2022-11-23T05:21:51.097Z,2.80
2022-11-23T05:24:54.659Z,3.27
2022-11-23T05:28:03.718Z,2.70
2022-11-23T05:31:16.456Z,3.40
2022-11-23T05:34:20.006Z,3.43
2022-11-23T05:37:23.705Z,2.90
2022-11-23T05:40:27.667Z,2.47
2022-11-23T05:43:42.322Z,3.13
2022-11-23T05:46:47.556Z,3.37
2022-11-23T05:49:51.598Z,10.03
2022-11-23T05:52:57.470Z,8.50
2022-11-23T05:56:02.035Z,11.33
2022-11-23T05:59:06.574Z,6.30
2022-11-23T06:02:11.695Z,3.03
2022-11-23T06:05:15.508Z,3.47
2022-11-23T06:08:20.240Z,3.10
2022-11-23T06:11:23.941Z,3.03
2022-11-23T06:14:27.568Z,3.07
2022-11-23T06:17:32.634Z,3.00
2022-11-23T06:20:36.396Z,2.77
2022-11-23T06:23:40.047Z,2.70
2022-11-23T06:26:43.879Z,5.57
2022-11-23T06:29:48.085Z,3.80
2022-11-23T06:32:53.269Z,4.93
2022-11-23T06:35:59.538Z,8.00
2022-11-23T06:39:03.421Z,10.73
2022-11-23T06:42:31.412Z,8.07
2022-11-23T06:45:30.841Z,6.40
2022-11-23T06:48:36.128Z,11.13
2022-11-23T06:51:39.858Z,8.13
2022-11-23T06:54:43.427Z,5.67
2022-11-23T06:57:47.118Z,4.60
2022-11-23T07:00:50.649Z,8.93
2022-11-23T07:03:55.850Z,7.20
2022-11-23T07:06:59.474Z,9.37
2022-11-23T07:10:07.069Z,9.87
2022-11-23T07:13:12.400Z,5.83
2022-11-23T07:16:16.690Z,11.73
2022-11-23T07:19:21.730Z,8.67
2022-11-23T07:22:25.502Z,7.23
2022-11-23T07:25:29.300Z,16.23
2022-11-23T07:28:34.221Z,13.03
2022-11-23T07:31:37.853Z,18.50
2022-11-23T07:34:42.844Z,12.53
2022-11-23T07:37:46.727Z,9.70
2022-11-23T07:40:51.786Z,6.40
2022-11-23T07:43:55.466Z,4.97
2022-11-23T07:47:01.218Z,6.47
2022-11-23T07:50:09.873Z,5.10
2022-11-23T07:53:13.644Z,6.47
2022-11-23T07:56:17.447Z,4.63
2022-11-23T07:59:21.080Z,4.53
2022-11-23T08:02:26.181Z,3.90
2022-11-23T08:05:35.725Z,3.60
2022-11-23T08:08:40.167Z,3.77
2022-11-23T08:11:44.286Z,3.40
2022-11-23T08:14:47.802Z,3.80
2022-11-23T08:17:56.066Z,3.27
2022-11-23T08:21:02.556Z,3.93
2022-11-23T08:24:06.862Z,4.00
2022-11-23T08:27:10.438Z,5.50
2022-11-23T08:30:15.934Z,4.50
2022-11-23T08:33:19.600Z,3.87
2022-11-23T08:36:25.214Z,3.83
2022-11-23T08:39:28.848Z,3.77
2022-11-23T08:42:32.515Z,4.33
2022-11-23T08:45:36.496Z,4.10
2022-11-23T08:48:40.343Z,3.90
2022-11-23T08:51:50.044Z,4.20
2022-11-23T08:54:54.350Z,4.10
2022-11-23T08:57:58.721Z,4.53
2022-11-23T09:01:03.640Z,3.53
2022-11-23T09:04:07.333Z,3.90
2022-11-23T09:07:12.283Z,2.90
2022-11-23T09:10:18.697Z,6.33
2022-11-23T09:13:22.986Z,7.07
2022-11-23T09:16:29.651Z,5.50
2022-11-23T09:19:37.208Z,2.90
2022-11-23T09:22:42.406Z,3.30
2022-11-23T09:25:48.415Z,2.83
2022-11-23T09:28:52.150Z,3.00
2022-11-23T09:31:55.718Z,3.20
2022-11-23T09:34:59.290Z,2.50
2022-11-23T09:38:04.327Z,3.00
2022-11-23T09:41:26.939Z,3.23
2022-11-23T09:45:01.167Z,2.80
2022-11-23T09:48:44.968Z,2.73
2022-11-23T09:51:51.304Z,2.53
2022-11-23T09:55:02.161Z,2.63
2022-11-23T09:58:08.241Z,2.20
2022-11-23T10:01:17.109Z,2.40
2022-11-23T10:04:22.171Z,2.47
2022-11-23T10:07:47.957Z,2.23
2022-11-23T10:11:01.580Z,2.37
2022-11-23T10:14:24.755Z,2.40
2022-11-23T10:17:59.190Z,2.77
2022-11-23T10:21:19.620Z,2.10
2022-11-23T10:24:34.664Z,2.83
2022-11-23T10:27:40.307Z,2.80
2022-11-23T10:30:46.607Z,2.37
2022-11-23T10:33:59.502Z,2.37
2022-11-23T10:37:03.039Z,2.70
2022-11-23T10:40:19.228Z,2.40
2022-11-23T10:43:30.079Z,2.47
2022-11-23T10:46:41.229Z,1.77
2022-11-23T10:49:59.459Z,2.73
2022-11-23T10:53:23.610Z,2.53
2022-11-23T10:56:27.692Z,2.93
2022-11-23T10:59:38.301Z,2.40
2022-11-23T11:02:44.206Z,2.13
2022-11-23T11:06:09.540Z,2.30
2022-11-23T11:09:22.453Z,2.30
2022-11-23T11:12:27.284Z,2.07
2022-11-23T11:15:32.984Z,1.93
2022-11-23T11:18:39.319Z,2.20
2022-11-23T11:21:44.114Z,1.90
2022-11-23T11:24:49.622Z,2.10
2022-11-23T11:27:53.950Z,2.00
2022-11-23T11:31:22.798Z,1.83
2022-11-23T11:34:33.508Z,1.90
2022-11-23T11:37:42.492Z,2.00
2022-11-23T11:40:50.230Z,2.13
2022-11-23T11:44:06.171Z,2.50
2022-11-23T11:47:28.338Z,2.27
2022-11-23T11:50:42.425Z,1.97
2022-11-23T11:53:57.463Z,2.17
2022-11-23T11:57:08.431Z,2.93
2022-11-23T12:00:18.370Z,2.70
2022-11-23T12:03:40.400Z,2.70
2022-11-23T12:06:52.964Z,2.80
2022-11-23T12:10:06.371Z,2.10
2022-11-23T12:13:15.339Z,2.10
2022-11-23T12:16:31.539Z,2.60
2022-11-23T12:19:46.251Z,2.20
2022-11-23T12:23:11.063Z,2.30
2022-11-23T12:26:29.302Z,2.43
2022-11-23T12:30:02.430Z,1.67
2022-11-23T12:33:35.606Z,1.77
2022-11-23T12:37:07.421Z,2.90
2022-11-23T12:40:37.766Z,1.70
2022-11-23T12:44:09.545Z,1.83
2022-11-23T12:47:32.976Z,1.60
2022-11-23T12:50:49.060Z,1.87
2022-11-23T12:54:13.751Z,2.20
2022-11-23T12:57:26.018Z,1.63
2022-11-23T13:00:37.415Z,1.57
2022-11-23T13:04:18.347Z,1.73
2022-11-23T13:07:59.061Z,1.70
2022-11-23T13:11:28.525Z,1.70
2022-11-23T13:14:45.861Z,1.67
2022-11-23T13:18:01.162Z,1.50
2022-11-23T13:21:30.526Z,1.40
2022-11-23T13:24:36.910Z,1.63
2022-11-23T13:27:57.867Z,1.50
2022-11-23T13:31:31.285Z,1.43
2022-11-23T13:34:51.134Z,2.50
2022-11-23T13:38:43.596Z,1.90
2022-11-23T13:42:02.724Z,1.93
2022-11-23T13:45:31.915Z,3.30
2022-11-23T13:49:00.813Z,2.03
2022-11-23T13:52:32.610Z,3.57
2022-11-23T13:55:38.982Z,1.37
2022-11-23T13:58:52.393Z,1.97
2022-11-23T14:02:31.544Z,1.70
2022-11-23T14:06:01.285Z,3.00
2022-11-23T14:09:19.312Z,2.10
2022-11-23T14:12:35.734Z,2.03
2022-11-23T14:15:47.162Z,1.63
2022-11-23T14:19:14.530Z,2.10
2022-11-23T14:22:35.636Z,2.60
2022-11-23T14:25:57.219Z,1.73
2022-11-23T14:29:27.419Z,2.67
2022-11-23T14:32:55.602Z,1.87
2022-11-23T14:36:21.652Z,2.10
2022-11-23T14:40:02.663Z,1.77
2022-11-23T14:43:19.073Z,2.30
2022-11-23T14:46:32.277Z,2.53
2022-11-23T14:49:49.781Z,3.93
2022-11-23T14:52:59.685Z,3.83
2022-11-23T14:56:03.863Z,2.53
2022-11-23T14:59:16.362Z,3.10
2022-11-23T15:02:26.509Z,4.10
2022-11-23T15:05:35.014Z,4.63
2022-11-23T15:08:51.098Z,3.50
2022-11-23T15:12:08.546Z,4.73
2022-11-23T15:15:37.938Z,2.90
2022-11-23T15:18:42.530Z,3.87
2022-11-23T15:21:46.827Z,2.83
2022-11-23T15:24:52.829Z,4.53
2022-11-23T15:27:56.687Z,3.80
2022-11-23T15:31:00.382Z,4.67
2022-11-23T15:34:13.427Z,8.80
2022-11-23T15:37:18.480Z,5.90
2022-11-23T15:40:28.848Z,4.67
2022-11-23T15:43:32.390Z,11.77
2022-11-23T15:46:39.056Z,5.87
2022-11-23T15:49:43.039Z,3.50
2022-11-23T15:52:46.887Z,4.73
2022-11-23T15:55:52.609Z,1.80
2022-11-23T15:58:57.845Z,4.60
2022-11-23T16:02:03.269Z,4.83
2022-11-23T16:05:15.388Z,3.77
2022-11-23T16:08:26.771Z,4.40
2022-11-23T16:11:35.790Z,4.63
2022-11-23T16:14:39.377Z,6.03
2022-11-23T16:17:46.475Z,5.00
2022-11-23T16:20:55.486Z,4.00
2022-11-23T16:24:01.118Z,3.60
2022-11-23T16:27:16.506Z,3.67
2022-11-23T16:30:25.298Z,3.67
2022-11-23T16:33:30.392Z,3.53
2022-11-23T16:36:34.043Z,3.20
2022-11-23T16:39:37.737Z,4.40
2022-11-23T16:42:42.708Z,5.00
2022-11-23T16:45:48.795Z,5.00
2022-11-23T16:48:53.991Z,7.00
2022-11-23T16:51:57.685Z,4.17
2022-11-23T16:55:01.478Z,6.10
2022-11-23T16:58:06.847Z,5.20
2022-11-23T17:01:20.890Z,4.00
2022-11-23T17:04:24.918Z,4.70
2022-11-23T17:07:28.674Z,5.00
2022-11-23T17:10:32.717Z,3.83
2022-11-23T17:13:37.811Z,3.43
2022-11-23T17:16:42.230Z,3.60
2022-11-23T17:19:48.314Z,3.50
2022-11-23T17:22:52.008Z,4.60
2022-11-23T17:25:55.723Z,4.17
2022-11-23T17:29:03.638Z,4.00
2022-11-23T17:32:10.453Z,3.50
2022-11-23T17:35:14.117Z,3.50
2022-11-23T17:38:24.538Z,3.50
2022-11-23T17:41:28.445Z,4.00
2022-11-23T17:44:33.675Z,4.33
2022-11-23T17:47:38.105Z,4.73
2022-11-23T17:50:42.096Z,3.93
2022-11-23T17:53:47.714Z,4.20
2022-11-23T17:56:52.614Z,4.37
2022-11-23T18:00:01.991Z,6.27
2022-11-23T18:03:07.083Z,7.87
2022-11-23T18:06:15.576Z,6.30
2022-11-23T18:09:19.260Z,5.77
2022-11-23T18:12:22.926Z,10.10
2022-11-23T18:15:33.745Z,13.63
2022-11-23T18:18:53.296Z,13.83
2022-11-23T18:21:57.390Z,5.77
2022-11-23T18:25:01.876Z,6.57
2022-11-23T18:28:06.827Z,7.07
2022-11-23T18:31:11.984Z,17.57
2022-11-23T18:34:15.599Z,12.50
2022-11-23T18:37:19.155Z,11.07
2022-11-23T18:40:22.850Z,6.30
2022-11-23T18:43:26.536Z,6.23
2022-11-23T18:46:33.165Z,4.80
2022-11-23T18:49:36.943Z,4.60
2022-11-23T18:52:40.671Z,11.03
2022-11-23T18:55:44.391Z,6.60
2022-11-23T18:58:48.414Z,4.27
2022-11-23T19:01:53.439Z,4.13
2022-11-23T19:04:57.097Z,4.10
2022-11-23T19:08:05.586Z,4.47
2022-11-23T19:11:16.137Z,4.97
2022-11-23T19:14:19.724Z,4.00
2022-11-23T19:17:24.731Z,4.27
2022-11-23T19:20:30.048Z,4.63
2022-11-23T19:23:33.824Z,6.73
2022-11-23T19:26:38.680Z,4.70
2022-11-23T19:29:42.570Z,7.00
2022-11-23T19:32:47.978Z,4.43
2022-11-23T19:35:51.836Z,4.07
2022-11-23T19:38:58.296Z,9.97
2022-11-23T19:42:02.023Z,5.53
2022-11-23T19:45:06.607Z,7.77
2022-11-23T19:48:11.714Z,9.53
2022-11-23T19:51:18.149Z,4.60
2022-11-23T19:54:21.863Z,6.03
2022-11-23T19:57:25.489Z,5.43
2022-11-23T20:00:29.307Z,5.43
2022-11-23T20:03:36.322Z,3.20
2022-11-23T20:06:43.174Z,4.00
2022-11-23T20:09:48.391Z,3.80
2022-11-23T20:12:52.098Z,3.30
2022-11-23T20:16:12.461Z,3.40
2022-11-23T20:19:17.587Z,3.40
2022-11-23T20:22:21.300Z,3.40
2022-11-23T20:25:24.915Z,3.27
2022-11-23T20:28:28.669Z,3.27
2022-11-23T20:31:33.826Z,2.90
2022-11-23T20:34:38.838Z,2.90
2022-11-23T20:37:42.427Z,2.93
2022-11-23T20:40:47.042Z,2.83
2022-11-23T20:43:54.435Z,3.40
2022-11-23T20:47:02.670Z,2.87
2022-11-23T20:50:10.443Z,3.27
2022-11-23T20:53:14.034Z,3.40
2022-11-23T20:56:25.754Z,2.97
2022-11-23T20:59:32.983Z,3.10
2022-11-23T21:02:36.762Z,3.67
2022-11-23T21:05:41.815Z,3.57
2022-11-23T21:08:47.505Z,3.10
2022-11-23T21:12:08.275Z,3.00
2022-11-23T21:15:12.428Z,2.97
2022-11-23T21:18:16.639Z,3.53
2022-11-23T21:21:21.872Z,3.33
2022-11-23T21:24:25.887Z,3.77
2022-11-23T21:27:29.641Z,3.87
2022-11-23T21:30:33.504Z,3.43
2022-11-23T21:33:38.005Z,3.63
2022-11-23T21:36:43.018Z,3.27
2022-11-23T21:39:52.522Z,3.07
2022-11-23T21:42:57.112Z,3.17
2022-11-23T21:46:01.996Z,3.60
2022-11-23T21:49:06.764Z,3.47
2022-11-23T21:52:11.758Z,3.27
2022-11-23T21:55:15.485Z,3.23
2022-11-23T21:58:19.078Z,2.93
2022-11-23T22:01:25.147Z,3.30
2022-11-23T22:04:28.802Z,3.07
2022-11-23T22:07:35.982Z,2.77
2022-11-23T22:10:39.694Z,3.30
2022-11-23T22:13:44.515Z,2.90
2022-11-23T22:16:50.818Z,4.37
2022-11-23T22:19:54.538Z,2.90
2022-11-23T22:22:59.621Z,2.90
2022-11-23T22:26:03.441Z,3.63
2022-11-23T22:29:07.244Z,2.90
2022-11-23T22:32:10.915Z,2.87
2022-11-23T22:35:14.560Z,3.47
2022-11-23T22:38:19.554Z,3.20
2022-11-23T22:41:23.687Z,3.20
2022-11-23T22:44:27.378Z,3.33
2022-11-23T22:47:30.950Z,2.40
2022-11-23T22:50:34.530Z,2.90
2022-11-23T22:53:44.626Z,2.93
2022-11-23T22:56:48.651Z,3.67
2022-11-23T22:59:53.261Z,3.03
2022-11-23T23:02:57.091Z,2.80
2022-11-23T23:06:01.306Z,2.83
2022-11-23T23:09:09.322Z,3.10
2022-11-23T23:12:13.109Z,3.37
2022-11-23T23:15:16.839Z,3.67
2022-11-23T23:18:20.395Z,3.87
2022-11-23T23:21:24.614Z,3.57
2022-11-23T23:24:29.579Z,3.20
2022-11-23T23:27:33.199Z,3.50
2022-11-23T23:30:36.924Z,3.37
2022-11-23T23:33:40.993Z,3.87
2022-11-23T23:36:44.630Z,3.10
2022-11-23T23:39:49.673Z,3.10
2022-11-23T23:42:53.225Z,3.20
2022-11-23T23:45:59.581Z,4.67
2022-11-23T23:49:03.424Z,3.07
2022-11-23T23:52:07.265Z,3.60
2022-11-23T23:55:12.457Z,3.40
2022-11-23T23:58:16.107Z,3.70
